sensor_id;sensor_type;location;lat;lon;timestamp;P1;durP1;ratioP1;P2;durP2;ratioP2
14472;SDS011;7322;50.872;4.386;2022-10-03T00:00:57;24.47;;;11.60;;
14472;SDS011;7322;50.872;4.386;2022-10-03T00:03:57;22.77;;;10.67;;
14472;SDS011;7322;50.872;4.386;2022-10-03T00:06:38;23.23;;;11.23;;
14472;SDS011;7322;50.872;4.386;2022-10-03T00:09:23;22.90;;;10.30;;
14472;SDS011;7322;50.872;4.386;2022-10-03T00:12:11;22.50;;;10.57;;
14472;SDS011;7322;50.872;4.386;2022-10-03T00:14:47;22.30;;;10.80;;
14472;SDS011;7322;50.872;4.386;2022-10-03T00:17:20;25.27;;;10.53;;
14472;SDS011;7322;50.872;4.386;2022-10-03T00:19:55;20.30;;;10.33;;
14472;SDS011;7322;50.872;4.386;2022-10-03T00:22:30;21.00;;;10.27;;
14472;SDS011;7322;50.872;4.386;2022-10-03T00:25:23;20.97;;;10.30;;
14472;SDS011;7322;50.872;4.386;2022-10-03T00:28:11;24.37;;;11.10;;
14472;SDS011;7322;50.872;4.386;2022-10-03T00:30:48;22.47;;;10.77;;
14472;SDS011;7322;50.872;4.386;2022-10-03T00:33:31;23.57;;;9.93;;
14472;SDS011;7322;50.872;4.386;2022-10-03T00:36:05;21.07;;;9.70;;
14472;SDS011;7322;50.872;4.386;2022-10-03T00:38:42;22.27;;;9.50;;
14472;SDS011;7322;50.872;4.386;2022-10-03T00:41:31;23.17;;;10.97;;
14472;SDS011;7322;50.872;4.386;2022-10-03T00:44:24;24.13;;;11.50;;
14472;SDS011;7322;50.872;4.386;2022-10-03T00:47:32;24.07;;;10.70;;
14472;SDS011;7322;50.872;4.386;2022-10-03T00:50:24;19.00;;;11.00;;
14472;SDS011;7322;50.872;4.386;2022-10-03T00:53:06;21.90;;;11.13;;
14472;SDS011;7322;50.872;4.386;2022-10-03T00:55:48;21.00;;;10.93;;
14472;SDS011;7322;50.872;4.386;2022-10-03T00:58:40;21.00;;;10.33;;
14472;SDS011;7322;50.872;4.386;2022-10-03T01:01:21;27.03;;;11.80;;
14472;SDS011;7322;50.872;4.386;2022-10-03T01:03:58;22.03;;;11.87;;
14472;SDS011;7322;50.872;4.386;2022-10-03T01:06:40;23.70;;;12.00;;
14472;SDS011;7322;50.872;4.386;2022-10-03T01:09:17;24.97;;;11.70;;
14472;SDS011;7322;50.872;4.386;2022-10-03T01:11:56;26.63;;;11.87;;
14472;SDS011;7322;50.872;4.386;2022-10-03T01:14:52;25.40;;;10.97;;
14472;SDS011;7322;50.872;4.386;2022-10-03T01:17:37;22.03;;;10.83;;
14472;SDS011;7322;50.872;4.386;2022-10-03T01:20:25;26.63;;;11.27;;
14472;SDS011;7322;50.872;4.386;2022-10-03T01:26:14;22.43;;;10.47;;
14472;SDS011;7322;50.872;4.386;2022-10-03T01:29:04;20.03;;;9.83;;
14472;SDS011;7322;50.872;4.386;2022-10-03T01:31:54;18.87;;;9.77;;
14472;SDS011;7322;50.872;4.386;2022-10-03T01:34:29;19.90;;;9.77;;
14472;SDS011;7322;50.872;4.386;2022-10-03T01:37:06;26.70;;;10.33;;
14472;SDS011;7322;50.872;4.386;2022-10-03T01:39:41;23.47;;;10.20;;
14472;SDS011;7322;50.872;4.386;2022-10-03T01:42:13;24.00;;;10.53;;
14472;SDS011;7322;50.872;4.386;2022-10-03T01:44:53;23.17;;;10.53;;
14472;SDS011;7322;50.872;4.386;2022-10-03T01:47:30;22.17;;;9.97;;
14472;SDS011;7322;50.872;4.386;2022-10-03T01:50:04;21.50;;;10.13;;
14472;SDS011;7322;50.872;4.386;2022-10-03T01:52:44;19.23;;;9.40;;
14472;SDS011;7322;50.872;4.386;2022-10-03T01:55:18;21.10;;;10.20;;
14472;SDS011;7322;50.872;4.386;2022-10-03T01:57:52;24.87;;;9.93;;
14472;SDS011;7322;50.872;4.386;2022-10-03T02:00:27;27.40;;;10.63;;
14472;SDS011;7322;50.872;4.386;2022-10-03T02:03:00;24.17;;;11.17;;
14472;SDS011;7322;50.872;4.386;2022-10-03T02:05:37;21.10;;;10.00;;
14472;SDS011;7322;50.872;4.386;2022-10-03T02:08:15;22.77;;;9.97;;
14472;SDS011;7322;50.872;4.386;2022-10-03T02:10:54;24.70;;;10.33;;
14472;SDS011;7322;50.872;4.386;2022-10-03T02:13:27;21.67;;;9.80;;
14472;SDS011;7322;50.872;4.386;2022-10-03T02:18:54;22.43;;;9.97;;
14472;SDS011;7322;50.872;4.386;2022-10-03T02:21:33;22.60;;;10.90;;
14472;SDS011;7322;50.872;4.386;2022-10-03T02:24:17;22.67;;;10.60;;
14472;SDS011;7322;50.872;4.386;2022-10-03T02:27:12;21.53;;;9.70;;
14472;SDS011;7322;50.872;4.386;2022-10-03T02:30:08;18.63;;;9.43;;
14472;SDS011;7322;50.872;4.386;2022-10-03T02:32:55;22.00;;;10.20;;
14472;SDS011;7322;50.872;4.386;2022-10-03T02:35:54;16.53;;;9.00;;
14472;SDS011;7322;50.872;4.386;2022-10-03T02:38:38;17.40;;;9.40;;
14472;SDS011;7322;50.872;4.386;2022-10-03T02:45:11;21.33;;;10.23;;
14472;SDS011;7322;50.872;4.386;2022-10-03T02:48:04;25.57;;;10.23;;
14472;SDS011;7322;50.872;4.386;2022-10-03T03:00:03;19.53;;;9.63;;
14472;SDS011;7322;50.872;4.386;2022-10-03T03:02:50;20.10;;;9.20;;
14472;SDS011;7322;50.872;4.386;2022-10-03T03:05:55;22.70;;;10.43;;
14472;SDS011;7322;50.872;4.386;2022-10-03T03:14:41;18.90;;;9.73;;
14472;SDS011;7322;50.872;4.386;2022-10-03T03:17:36;19.27;;;10.37;;
14472;SDS011;7322;50.872;4.386;2022-10-03T03:20:17;20.00;;;9.27;;
14472;SDS011;7322;50.872;4.386;2022-10-03T03:23:12;17.30;;;9.57;;
14472;SDS011;7322;50.872;4.386;2022-10-03T03:26:09;46.60;;;14.80;;
14472;SDS011;7322;50.872;4.386;2022-10-03T03:28:54;24.13;;;11.00;;
14472;SDS011;7322;50.872;4.386;2022-10-03T03:31:29;22.83;;;10.93;;
14472;SDS011;7322;50.872;4.386;2022-10-03T03:34:06;21.63;;;10.37;;
14472;SDS011;7322;50.872;4.386;2022-10-03T03:36:39;23.03;;;9.77;;
14472;SDS011;7322;50.872;4.386;2022-10-03T03:39:17;21.47;;;9.50;;
14472;SDS011;7322;50.872;4.386;2022-10-03T03:44:55;19.70;;;10.07;;
14472;SDS011;7322;50.872;4.386;2022-10-03T03:47:46;20.83;;;10.37;;
14472;SDS011;7322;50.872;4.386;2022-10-03T03:50:26;22.30;;;10.20;;
14472;SDS011;7322;50.872;4.386;2022-10-03T03:53:04;21.37;;;9.77;;
14472;SDS011;7322;50.872;4.386;2022-10-03T03:55:53;18.53;;;9.50;;
14472;SDS011;7322;50.872;4.386;2022-10-03T03:58:37;19.57;;;9.60;;
14472;SDS011;7322;50.872;4.386;2022-10-03T04:04:10;26.93;;;10.20;;
14472;SDS011;7322;50.872;4.386;2022-10-03T04:06:50;23.87;;;10.93;;
14472;SDS011;7322;50.872;4.386;2022-10-03T04:12:44;19.43;;;11.20;;
14472;SDS011;7322;50.872;4.386;2022-10-03T04:15:28;18.97;;;10.47;;
14472;SDS011;7322;50.872;4.386;2022-10-03T04:18:13;23.40;;;11.10;;
14472;SDS011;7322;50.872;4.386;2022-10-03T04:21:22;19.07;;;10.33;;
14472;SDS011;7322;50.872;4.386;2022-10-03T04:24:10;21.93;;;10.83;;
14472;SDS011;7322;50.872;4.386;2022-10-03T04:27:01;21.43;;;10.53;;
14472;SDS011;7322;50.872;4.386;2022-10-03T04:29:43;19.77;;;10.30;;
14472;SDS011;7322;50.872;4.386;2022-10-03T04:32:17;21.07;;;10.40;;
14472;SDS011;7322;50.872;4.386;2022-10-03T04:35:04;23.13;;;11.27;;
14472;SDS011;7322;50.872;4.386;2022-10-03T04:37:45;19.70;;;10.60;;
14472;SDS011;7322;50.872;4.386;2022-10-03T04:40:16;18.93;;;10.60;;
14472;SDS011;7322;50.872;4.386;2022-10-03T04:42:56;19.70;;;10.60;;
14472;SDS011;7322;50.872;4.386;2022-10-03T04:45:36;21.30;;;10.23;;
14472;SDS011;7322;50.872;4.386;2022-10-03T04:48:12;22.17;;;10.03;;
14472;SDS011;7322;50.872;4.386;2022-10-03T04:50:46;20.97;;;9.67;;
14472;SDS011;7322;50.872;4.386;2022-10-03T04:53:32;22.80;;;9.80;;
14472;SDS011;7322;50.872;4.386;2022-10-03T04:56:18;21.60;;;10.47;;
14472;SDS011;7322;50.872;4.386;2022-10-03T04:59:01;20.00;;;10.60;;
14472;SDS011;7322;50.872;4.386;2022-10-03T05:01:39;23.67;;;10.70;;
14472;SDS011;7322;50.872;4.386;2022-10-03T05:04:15;23.10;;;11.40;;
14472;SDS011;7322;50.872;4.386;2022-10-03T05:06:53;21.63;;;10.50;;
14472;SDS011;7322;50.872;4.386;2022-10-03T05:09:29;23.73;;;10.90;;
14472;SDS011;7322;50.872;4.386;2022-10-03T05:12:05;15.43;;;9.57;;
14472;SDS011;7322;50.872;4.386;2022-10-03T05:14:43;18.17;;;10.23;;
14472;SDS011;7322;50.872;4.386;2022-10-03T05:17:26;27.50;;;10.37;;
14472;SDS011;7322;50.872;4.386;2022-10-03T05:20:08;21.47;;;10.70;;
14472;SDS011;7322;50.872;4.386;2022-10-03T05:22:55;20.23;;;10.60;;
14472;SDS011;7322;50.872;4.386;2022-10-03T05:25:42;20.27;;;10.00;;
14472;SDS011;7322;50.872;4.386;2022-10-03T05:28:20;22.53;;;11.53;;
14472;SDS011;7322;50.872;4.386;2022-10-03T05:30:59;22.00;;;10.90;;
14472;SDS011;7322;50.872;4.386;2022-10-03T05:33:36;20.07;;;11.00;;
14472;SDS011;7322;50.872;4.386;2022-10-03T05:36:10;22.37;;;10.27;;
14472;SDS011;7322;50.872;4.386;2022-10-03T05:42:01;22.93;;;11.30;;
14472;SDS011;7322;50.872;4.386;2022-10-03T05:44:50;20.53;;;11.17;;
14472;SDS011;7322;50.872;4.386;2022-10-03T05:47:27;17.37;;;10.43;;
14472;SDS011;7322;50.872;4.386;2022-10-03T05:56:36;19.23;;;10.80;;
14472;SDS011;7322;50.872;4.386;2022-10-03T05:59:35;22.00;;;11.50;;
14472;SDS011;7322;50.872;4.386;2022-10-03T06:02:37;25.27;;;12.33;;
14472;SDS011;7322;50.872;4.386;2022-10-03T06:05:43;20.20;;;12.00;;
14472;SDS011;7322;50.872;4.386;2022-10-03T06:08:47;24.47;;;12.13;;
14472;SDS011;7322;50.872;4.386;2022-10-03T06:11:26;22.03;;;11.90;;
14472;SDS011;7322;50.872;4.386;2022-10-03T06:14:22;21.23;;;11.30;;
14472;SDS011;7322;50.872;4.386;2022-10-03T06:17:08;18.20;;;10.80;;
14472;SDS011;7322;50.872;4.386;2022-10-03T06:19:51;22.57;;;11.50;;
14472;SDS011;7322;50.872;4.386;2022-10-03T06:22:34;24.70;;;11.90;;
14472;SDS011;7322;50.872;4.386;2022-10-03T06:31:40;19.57;;;11.40;;
14472;SDS011;7322;50.872;4.386;2022-10-03T06:34:41;20.67;;;10.87;;
14472;SDS011;7322;50.872;4.386;2022-10-03T06:40:45;21.27;;;12.13;;
14472;SDS011;7322;50.872;4.386;2022-10-03T06:43:45;18.77;;;11.40;;
14472;SDS011;7322;50.872;4.386;2022-10-03T06:46:59;19.47;;;11.63;;
14472;SDS011;7322;50.872;4.386;2022-10-03T06:52:56;21.93;;;12.53;;
14472;SDS011;7322;50.872;4.386;2022-10-03T07:01:42;19.57;;;12.20;;
14472;SDS011;7322;50.872;4.386;2022-10-03T07:07:47;18.90;;;11.27;;
14472;SDS011;7322;50.872;4.386;2022-10-03T07:25:30;19.73;;;11.90;;
14472;SDS011;7322;50.872;4.386;2022-10-03T07:31:24;18.27;;;11.43;;
14472;SDS011;7322;50.872;4.386;2022-10-03T07:37:13;22.77;;;12.27;;
14472;SDS011;7322;50.872;4.386;2022-10-03T07:40:09;19.37;;;11.30;;
14472;SDS011;7322;50.872;4.386;2022-10-03T07:43:00;21.40;;;12.03;;
14472;SDS011;7322;50.872;4.386;2022-10-03T07:45:47;21.03;;;11.83;;
14472;SDS011;7322;50.872;4.386;2022-10-03T07:49:04;28.90;;;13.03;;
14472;SDS011;7322;50.872;4.386;2022-10-03T07:51:47;18.53;;;12.03;;
14472;SDS011;7322;50.872;4.386;2022-10-03T07:57:36;19.83;;;11.80;;
14472;SDS011;7322;50.872;4.386;2022-10-03T08:00:22;18.27;;;11.37;;
14472;SDS011;7322;50.872;4.386;2022-10-03T08:14:55;21.07;;;10.63;;
14472;SDS011;7322;50.872;4.386;2022-10-03T08:17:45;22.30;;;12.17;;
14472;SDS011;7322;50.872;4.386;2022-10-03T08:20:43;24.97;;;11.50;;
14472;SDS011;7322;50.872;4.386;2022-10-03T08:23:21;21.17;;;10.77;;
14472;SDS011;7322;50.872;4.386;2022-10-03T08:26:10;20.30;;;10.60;;
14472;SDS011;7322;50.872;4.386;2022-10-03T08:28:51;18.87;;;9.00;;
14472;SDS011;7322;50.872;4.386;2022-10-03T08:34:34;21.37;;;10.63;;
14472;SDS011;7322;50.872;4.386;2022-10-03T08:37:40;20.90;;;10.57;;
14472;SDS011;7322;50.872;4.386;2022-10-03T08:40:57;19.43;;;9.13;;
14472;SDS011;7322;50.872;4.386;2022-10-03T08:44:10;16.43;;;8.27;;
14472;SDS011;7322;50.872;4.386;2022-10-03T08:50:22;15.93;;;7.37;;
14472;SDS011;7322;50.872;4.386;2022-10-03T08:53:15;17.13;;;7.43;;
14472;SDS011;7322;50.872;4.386;2022-10-03T08:56:08;15.83;;;7.23;;
